Weather at Aviosuperficie AS77

Public forecast

Using degrees Celsius for public forecast. Weather courtesy of forecast.io.

Closest aviation weather report (METAR) to Aviosuperficie AS77

Report is more than 6 hours old.

Closest report is Rivolto Air Base, 6.6 nm (12.3 km) W. Retrieved 2020/09/25 09:55 UTC (2 days ago):

LIPI 250955Z 10008KT 9999 SCT009 SCT015 20/17 Q0997 RMK BKN VIS MIN 9999 WIND THR06 11007KT WIND THR24 10008KT BLU

Closest aviation forecast (TAF) to Aviosuperficie AS77

Forecast is more than 12 hours old.

Closest forecast is Rivolto Air Base, 6.6 nm (12.3 km) W. Retrieved 2020/01/23 12:24 UTC (8 months ago):

TAF TAF LIPI 231100Z 2312/2324 06010KT CAVOK